sensor_id;sensor_type;location;lat;lon;timestamp;P1;durP1;ratioP1;P2;durP2;ratioP2
11924;SDS011;6022;48.768;18.608;2023-04-24T00:00:14;5.33;;;1.93;;
11924;SDS011;6022;48.768;18.608;2023-04-24T00:02:44;2.83;;;2.17;;
11924;SDS011;6022;48.768;18.608;2023-04-24T00:05:15;1.23;;;1.13;;
11924;SDS011;6022;48.768;18.608;2023-04-24T00:07:44;1.87;;;1.60;;
11924;SDS011;6022;48.768;18.608;2023-04-24T00:10:11;2.23;;;1.87;;
11924;SDS011;6022;48.768;18.608;2023-04-24T00:12:39;2.10;;;2.00;;
11924;SDS011;6022;48.768;18.608;2023-04-24T00:15:06;3.33;;;1.70;;
11924;SDS011;6022;48.768;18.608;2023-04-24T00:17:35;2.57;;;1.50;;
11924;SDS011;6022;48.768;18.608;2023-04-24T00:20:03;1.57;;;1.47;;
11924;SDS011;6022;48.768;18.608;2023-04-24T00:22:33;3.33;;;1.93;;
11924;SDS011;6022;48.768;18.608;2023-04-24T00:25:00;2.30;;;1.57;;
11924;SDS011;6022;48.768;18.608;2023-04-24T00:27:28;2.10;;;1.90;;
11924;SDS011;6022;48.768;18.608;2023-04-24T00:29:56;2.13;;;1.83;;
11924;SDS011;6022;48.768;18.608;2023-04-24T00:32:25;2.10;;;1.90;;
11924;SDS011;6022;48.768;18.608;2023-04-24T00:34:52;1.40;;;1.30;;
11924;SDS011;6022;48.768;18.608;2023-04-24T00:37:20;1.30;;;1.20;;
11924;SDS011;6022;48.768;18.608;2023-04-24T00:39:47;2.40;;;2.20;;
11924;SDS011;6022;48.768;18.608;2023-04-24T00:42:14;2.00;;;1.70;;
11924;SDS011;6022;48.768;18.608;2023-04-24T00:44:42;3.93;;;1.73;;
11924;SDS011;6022;48.768;18.608;2023-04-24T00:47:10;1.83;;;1.40;;
11924;SDS011;6022;48.768;18.608;2023-04-24T00:49:39;3.33;;;2.17;;
11924;SDS011;6022;48.768;18.608;2023-04-24T00:52:07;2.13;;;2.03;;
11924;SDS011;6022;48.768;18.608;2023-04-24T00:54:37;1.63;;;1.53;;
11924;SDS011;6022;48.768;18.608;2023-04-24T00:57:05;2.07;;;1.70;;
11924;SDS011;6022;48.768;18.608;2023-04-24T00:59:32;1.80;;;1.57;;
11924;SDS011;6022;48.768;18.608;2023-04-24T01:02:02;1.97;;;1.83;;
11924;SDS011;6022;48.768;18.608;2023-04-24T01:04:29;1.63;;;1.53;;
11924;SDS011;6022;48.768;18.608;2023-04-24T01:06:57;2.00;;;1.90;;
11924;SDS011;6022;48.768;18.608;2023-04-24T01:09:24;2.10;;;1.80;;
11924;SDS011;6022;48.768;18.608;2023-04-24T01:11:55;2.07;;;1.83;;
11924;SDS011;6022;48.768;18.608;2023-04-24T01:14:22;1.63;;;1.53;;
11924;SDS011;6022;48.768;18.608;2023-04-24T01:16:50;1.80;;;1.70;;
11924;SDS011;6022;48.768;18.608;2023-04-24T01:19:17;2.33;;;1.40;;
11924;SDS011;6022;48.768;18.608;2023-04-24T01:21:46;3.07;;;1.93;;
11924;SDS011;6022;48.768;18.608;2023-04-24T01:24:32;3.27;;;1.93;;
11924;SDS011;6022;48.768;18.608;2023-04-24T01:26:59;1.70;;;1.60;;
11924;SDS011;6022;48.768;18.608;2023-04-24T01:29:27;2.13;;;1.63;;
11924;SDS011;6022;48.768;18.608;2023-04-24T01:31:55;3.40;;;1.27;;
11924;SDS011;6022;48.768;18.608;2023-04-24T01:34:25;1.80;;;1.70;;
11924;SDS011;6022;48.768;18.608;2023-04-24T01:36:52;1.70;;;1.57;;
11924;SDS011;6022;48.768;18.608;2023-04-24T01:39:20;3.20;;;1.93;;
11924;SDS011;6022;48.768;18.608;2023-04-24T01:41:49;2.57;;;2.33;;
11924;SDS011;6022;48.768;18.608;2023-04-24T01:44:17;4.03;;;2.30;;
11924;SDS011;6022;48.768;18.608;2023-04-24T01:46:45;2.10;;;1.90;;
11924;SDS011;6022;48.768;18.608;2023-04-24T01:49:12;1.87;;;1.77;;
11924;SDS011;6022;48.768;18.608;2023-04-24T01:51:40;2.07;;;1.87;;
11924;SDS011;6022;48.768;18.608;2023-04-24T01:54:07;1.70;;;1.33;;
11924;SDS011;6022;48.768;18.608;2023-04-24T01:56:36;2.37;;;1.40;;
11924;SDS011;6022;48.768;18.608;2023-04-24T01:59:09;2.13;;;1.97;;
11924;SDS011;6022;48.768;18.608;2023-04-24T02:01:38;2.27;;;1.60;;
11924;SDS011;6022;48.768;18.608;2023-04-24T02:04:11;1.43;;;1.33;;
11924;SDS011;6022;48.768;18.608;2023-04-24T02:06:46;3.63;;;1.70;;
11924;SDS011;6022;48.768;18.608;2023-04-24T02:09:16;2.17;;;2.00;;
11924;SDS011;6022;48.768;18.608;2023-04-24T02:11:44;2.47;;;2.27;;
11924;SDS011;6022;48.768;18.608;2023-04-24T02:14:11;1.50;;;1.40;;
11924;SDS011;6022;48.768;18.608;2023-04-24T02:16:39;2.43;;;1.50;;
11924;SDS011;6022;48.768;18.608;2023-04-24T02:19:06;2.20;;;2.10;;
11924;SDS011;6022;48.768;18.608;2023-04-24T02:21:36;2.13;;;1.93;;
11924;SDS011;6022;48.768;18.608;2023-04-24T02:24:03;1.70;;;1.60;;
11924;SDS011;6022;48.768;18.608;2023-04-24T02:26:31;2.00;;;1.87;;
11924;SDS011;6022;48.768;18.608;2023-04-24T02:28:58;2.43;;;2.00;;
11924;SDS011;6022;48.768;18.608;2023-04-24T02:31:26;2.40;;;1.97;;
11924;SDS011;6022;48.768;18.608;2023-04-24T02:33:54;3.43;;;1.93;;
11924;SDS011;6022;48.768;18.608;2023-04-24T02:36:35;3.60;;;2.33;;
11924;SDS011;6022;48.768;18.608;2023-04-24T02:39:03;2.87;;;1.50;;
11924;SDS011;6022;48.768;18.608;2023-04-24T02:41:32;2.03;;;1.87;;
11924;SDS011;6022;48.768;18.608;2023-04-24T02:44:01;1.87;;;1.70;;
11924;SDS011;6022;48.768;18.608;2023-04-24T02:46:28;1.97;;;1.77;;
11924;SDS011;6022;48.768;18.608;2023-04-24T02:48:55;1.87;;;1.73;;
11924;SDS011;6022;48.768;18.608;2023-04-24T02:51:23;2.70;;;1.70;;
11924;SDS011;6022;48.768;18.608;2023-04-24T02:53:50;1.80;;;1.63;;
11924;SDS011;6022;48.768;18.608;2023-04-24T02:56:18;3.40;;;2.07;;
11924;SDS011;6022;48.768;18.608;2023-04-24T02:58:46;2.43;;;1.67;;
11924;SDS011;6022;48.768;18.608;2023-04-24T03:01:13;2.37;;;2.23;;
11924;SDS011;6022;48.768;18.608;2023-04-24T03:03:41;2.70;;;1.63;;
11924;SDS011;6022;48.768;18.608;2023-04-24T03:06:08;2.20;;;2.10;;
11924;SDS011;6022;48.768;18.608;2023-04-24T03:08:36;3.37;;;2.77;;
11924;SDS011;6022;48.768;18.608;2023-04-24T03:11:03;3.23;;;2.20;;
11924;SDS011;6022;48.768;18.608;2023-04-24T03:13:31;5.07;;;1.97;;
11924;SDS011;6022;48.768;18.608;2023-04-24T03:15:59;2.50;;;2.03;;
11924;SDS011;6022;48.768;18.608;2023-04-24T03:18:26;2.67;;;1.80;;
11924;SDS011;6022;48.768;18.608;2023-04-24T03:20:54;8.00;;;2.60;;
11924;SDS011;6022;48.768;18.608;2023-04-24T03:23:21;2.97;;;1.90;;
11924;SDS011;6022;48.768;18.608;2023-04-24T03:25:49;2.13;;;1.83;;
11924;SDS011;6022;48.768;18.608;2023-04-24T03:28:16;2.90;;;2.13;;
11924;SDS011;6022;48.768;18.608;2023-04-24T03:30:46;2.00;;;1.90;;
11924;SDS011;6022;48.768;18.608;2023-04-24T03:33:13;2.07;;;1.97;;
11924;SDS011;6022;48.768;18.608;2023-04-24T03:35:41;2.53;;;1.70;;
11924;SDS011;6022;48.768;18.608;2023-04-24T03:38:09;1.97;;;1.87;;
11924;SDS011;6022;48.768;18.608;2023-04-24T03:40:37;3.70;;;2.43;;
11924;SDS011;6022;48.768;18.608;2023-04-24T03:43:04;1.93;;;1.73;;
11924;SDS011;6022;48.768;18.608;2023-04-24T03:45:32;4.03;;;2.77;;
11924;SDS011;6022;48.768;18.608;2023-04-24T03:48:01;1.60;;;1.50;;
11924;SDS011;6022;48.768;18.608;2023-04-24T03:50:29;2.00;;;1.80;;
11924;SDS011;6022;48.768;18.608;2023-04-24T03:53:01;3.33;;;2.87;;
11924;SDS011;6022;48.768;18.608;2023-04-24T03:55:29;5.10;;;2.47;;
11924;SDS011;6022;48.768;18.608;2023-04-24T03:58:13;2.10;;;1.90;;
11924;SDS011;6022;48.768;18.608;2023-04-24T04:00:41;2.80;;;2.17;;
11924;SDS011;6022;48.768;18.608;2023-04-24T04:03:08;2.27;;;1.97;;
11924;SDS011;6022;48.768;18.608;2023-04-24T04:05:36;2.47;;;2.00;;
11924;SDS011;6022;48.768;18.608;2023-04-24T04:08:04;3.63;;;2.20;;
11924;SDS011;6022;48.768;18.608;2023-04-24T04:10:41;2.20;;;2.00;;
11924;SDS011;6022;48.768;18.608;2023-04-24T04:13:12;3.57;;;2.47;;
11924;SDS011;6022;48.768;18.608;2023-04-24T04:15:40;4.07;;;2.60;;
11924;SDS011;6022;48.768;18.608;2023-04-24T04:18:07;4.43;;;3.03;;
11924;SDS011;6022;48.768;18.608;2023-04-24T04:20:35;2.33;;;2.13;;
11924;SDS011;6022;48.768;18.608;2023-04-24T04:23:02;2.40;;;2.20;;
11924;SDS011;6022;48.768;18.608;2023-04-24T04:25:35;3.40;;;2.50;;
11924;SDS011;6022;48.768;18.608;2023-04-24T04:28:03;4.33;;;2.83;;
11924;SDS011;6022;48.768;18.608;2023-04-24T04:30:30;2.67;;;2.47;;
11924;SDS011;6022;48.768;18.608;2023-04-24T04:32:58;3.13;;;2.13;;
11924;SDS011;6022;48.768;18.608;2023-04-24T04:35:26;5.70;;;2.93;;
11924;SDS011;6022;48.768;18.608;2023-04-24T04:37:54;2.73;;;2.53;;
11924;SDS011;6022;48.768;18.608;2023-04-24T04:40:25;2.50;;;2.30;;
11924;SDS011;6022;48.768;18.608;2023-04-24T04:42:53;4.03;;;2.47;;
11924;SDS011;6022;48.768;18.608;2023-04-24T04:45:20;2.70;;;2.50;;
11924;SDS011;6022;48.768;18.608;2023-04-24T04:47:50;3.23;;;2.53;;
11924;SDS011;6022;48.768;18.608;2023-04-24T04:50:18;4.40;;;2.60;;
11924;SDS011;6022;48.768;18.608;2023-04-24T04:52:45;2.07;;;1.87;;
11924;SDS011;6022;48.768;18.608;2023-04-24T04:55:13;5.30;;;3.23;;
11924;SDS011;6022;48.768;18.608;2023-04-24T04:57:41;2.40;;;2.20;;
11924;SDS011;6022;48.768;18.608;2023-04-24T05:00:08;2.53;;;2.30;;
11924;SDS011;6022;48.768;18.608;2023-04-24T05:02:37;3.37;;;2.27;;
11924;SDS011;6022;48.768;18.608;2023-04-24T05:05:06;2.73;;;2.43;;
11924;SDS011;6022;48.768;18.608;2023-04-24T05:07:35;3.97;;;2.80;;
11924;SDS011;6022;48.768;18.608;2023-04-24T05:10:02;3.07;;;2.30;;
11924;SDS011;6022;48.768;18.608;2023-04-24T05:12:30;2.77;;;2.57;;
11924;SDS011;6022;48.768;18.608;2023-04-24T05:14:57;3.43;;;2.37;;
11924;SDS011;6022;48.768;18.608;2023-04-24T05:17:25;1.83;;;1.73;;
11924;SDS011;6022;48.768;18.608;2023-04-24T05:19:52;3.60;;;2.03;;
11924;SDS011;6022;48.768;18.608;2023-04-24T05:22:19;2.27;;;2.13;;
11924;SDS011;6022;48.768;18.608;2023-04-24T05:24:49;3.00;;;2.70;;
11924;SDS011;6022;48.768;18.608;2023-04-24T05:27:16;2.50;;;1.97;;
11924;SDS011;6022;48.768;18.608;2023-04-24T05:29:44;3.47;;;3.07;;
11924;SDS011;6022;48.768;18.608;2023-04-24T05:32:11;3.60;;;2.80;;
11924;SDS011;6022;48.768;18.608;2023-04-24T05:34:43;3.03;;;2.73;;
11924;SDS011;6022;48.768;18.608;2023-04-24T05:37:10;6.30;;;3.13;;
11924;SDS011;6022;48.768;18.608;2023-04-24T05:39:38;3.23;;;2.73;;
11924;SDS011;6022;48.768;18.608;2023-04-24T05:42:07;2.93;;;2.43;;
11924;SDS011;6022;48.768;18.608;2023-04-24T05:44:35;4.17;;;2.87;;
11924;SDS011;6022;48.768;18.608;2023-04-24T05:47:05;2.57;;;2.37;;
11924;SDS011;6022;48.768;18.608;2023-04-24T05:49:33;4.47;;;2.93;;
11924;SDS011;6022;48.768;18.608;2023-04-24T05:52:00;2.90;;;2.70;;
11924;SDS011;6022;48.768;18.608;2023-04-24T05:54:27;2.77;;;2.47;;
11924;SDS011;6022;48.768;18.608;2023-04-24T05:56:55;3.07;;;2.77;;
11924;SDS011;6022;48.768;18.608;2023-04-24T05:59:25;1.70;;;1.60;;
11924;SDS011;6022;48.768;18.608;2023-04-24T06:01:52;2.07;;;1.87;;
11924;SDS011;6022;48.768;18.608;2023-04-24T06:04:20;2.10;;;2.00;;
11924;SDS011;6022;48.768;18.608;2023-04-24T06:06:48;3.53;;;2.37;;
11924;SDS011;6022;48.768;18.608;2023-04-24T06:09:17;6.07;;;2.20;;
11924;SDS011;6022;48.768;18.608;2023-04-24T06:11:44;2.67;;;2.27;;
11924;SDS011;6022;48.768;18.608;2023-04-24T06:14:12;2.77;;;1.77;;
11924;SDS011;6022;48.768;18.608;2023-04-24T06:16:42;2.10;;;1.87;;
11924;SDS011;6022;48.768;18.608;2023-04-24T06:19:10;3.70;;;2.23;;
11924;SDS011;6022;48.768;18.608;2023-04-24T06:21:37;2.27;;;2.17;;
11924;SDS011;6022;48.768;18.608;2023-04-24T06:24:04;2.53;;;2.20;;
11924;SDS011;6022;48.768;18.608;2023-04-24T06:26:32;2.40;;;2.10;;
11924;SDS011;6022;48.768;18.608;2023-04-24T06:29:00;8.27;;;2.27;;
11924;SDS011;6022;48.768;18.608;2023-04-24T06:31:31;3.03;;;2.72;;
11924;SDS011;6022;48.768;18.608;2023-04-24T06:34:10;3.10;;;2.37;;
11924;SDS011;6022;48.768;18.608;2023-04-24T06:36:38;5.70;;;2.17;;
11924;SDS011;6022;48.768;18.608;2023-04-24T06:39:08;2.77;;;2.20;;
11924;SDS011;6022;48.768;18.608;2023-04-24T06:41:36;3.47;;;2.53;;
11924;SDS011;6022;48.768;18.608;2023-04-24T06:44:04;4.47;;;2.87;;
11924;SDS011;6022;48.768;18.608;2023-04-24T06:46:31;3.77;;;2.77;;
11924;SDS011;6022;48.768;18.608;2023-04-24T06:49:03;3.33;;;3.00;;
11924;SDS011;6022;48.768;18.608;2023-04-24T06:51:33;3.60;;;2.67;;
11924;SDS011;6022;48.768;18.608;2023-04-24T06:54:05;3.63;;;2.30;;
11924;SDS011;6022;48.768;18.608;2023-04-24T06:56:44;2.97;;;2.43;;
11924;SDS011;6022;48.768;18.608;2023-04-24T06:59:16;3.47;;;2.13;;
11924;SDS011;6022;48.768;18.608;2023-04-24T07:01:49;3.40;;;2.67;;
11924;SDS011;6022;48.768;18.608;2023-04-24T07:04:20;2.67;;;2.47;;
11924;SDS011;6022;48.768;18.608;2023-04-24T07:06:48;2.63;;;2.43;;
11924;SDS011;6022;48.768;18.608;2023-04-24T07:09:21;2.80;;;2.33;;
11924;SDS011;6022;48.768;18.608;2023-04-24T07:11:52;4.93;;;2.90;;
11924;SDS011;6022;48.768;18.608;2023-04-24T07:14:27;1.83;;;1.60;;
11924;SDS011;6022;48.768;18.608;2023-04-24T07:17:05;2.90;;;2.20;;
11924;SDS011;6022;48.768;18.608;2023-04-24T07:19:35;3.03;;;2.60;;
11924;SDS011;6022;48.768;18.608;2023-04-24T07:22:12;5.97;;;2.67;;
11924;SDS011;6022;48.768;18.608;2023-04-24T07:25:28;5.03;;;2.17;;
11924;SDS011;6022;48.768;18.608;2023-04-24T07:28:12;1.80;;;1.60;;
11924;SDS011;6022;48.768;18.608;2023-04-24T07:30:42;3.13;;;2.50;;
11924;SDS011;6022;48.768;18.608;2023-04-24T07:33:13;2.87;;;1.90;;
11924;SDS011;6022;48.768;18.608;2023-04-24T07:36:03;2.50;;;2.00;;
11924;SDS011;6022;48.768;18.608;2023-04-24T07:38:52;2.40;;;2.13;;
11924;SDS011;6022;48.768;18.608;2023-04-24T07:41:20;2.97;;;2.37;;
11924;SDS011;6022;48.768;18.608;2023-04-24T07:43:50;2.60;;;2.27;;
11924;SDS011;6022;48.768;18.608;2023-04-24T07:46:23;3.13;;;2.50;;
11924;SDS011;6022;48.768;18.608;2023-04-24T07:49:00;2.53;;;2.33;;
11924;SDS011;6022;48.768;18.608;2023-04-24T07:51:39;2.87;;;2.57;;
11924;SDS011;6022;48.768;18.608;2023-04-24T07:54:08;2.87;;;2.13;;
11924;SDS011;6022;48.768;18.608;2023-04-24T07:56:36;3.27;;;2.53;;
11924;SDS011;6022;48.768;18.608;2023-04-24T07:59:06;5.60;;;3.47;;
11924;SDS011;6022;48.768;18.608;2023-04-24T08:01:33;2.73;;;2.20;;
11924;SDS011;6022;48.768;18.608;2023-04-24T08:04:01;7.57;;;2.73;;
11924;SDS011;6022;48.768;18.608;2023-04-24T08:06:31;1.97;;;1.87;;
11924;SDS011;6022;48.768;18.608;2023-04-24T08:08:59;2.57;;;2.30;;
11924;SDS011;6022;48.768;18.608;2023-04-24T08:11:28;2.17;;;1.33;;
11924;SDS011;6022;48.768;18.608;2023-04-24T08:13:58;2.20;;;1.83;;
11924;SDS011;6022;48.768;18.608;2023-04-24T08:16:25;2.33;;;2.13;;
11924;SDS011;6022;48.768;18.608;2023-04-24T08:18:55;3.00;;;2.20;;
11924;SDS011;6022;48.768;18.608;2023-04-24T08:21:23;2.93;;;2.33;;
11924;SDS011;6022;48.768;18.608;2023-04-24T08:23:59;6.20;;;3.30;;
11924;SDS011;6022;48.768;18.608;2023-04-24T08:29:11;1.80;;;1.70;;
11924;SDS011;6022;48.768;18.608;2023-04-24T08:32:00;4.30;;;2.77;;
11924;SDS011;6022;48.768;18.608;2023-04-24T08:34:28;2.47;;;2.27;;
11924;SDS011;6022;48.768;18.608;2023-04-24T08:36:55;2.70;;;2.00;;
11924;SDS011;6022;48.768;18.608;2023-04-24T08:39:23;3.17;;;2.50;;
11924;SDS011;6022;48.768;18.608;2023-04-24T08:41:54;2.40;;;1.83;;
11924;SDS011;6022;48.768;18.608;2023-04-24T08:44:22;3.53;;;2.67;;
11924;SDS011;6022;48.768;18.608;2023-04-24T08:46:50;4.00;;;3.07;;
11924;SDS011;6022;48.768;18.608;2023-04-24T08:49:18;2.60;;;2.40;;
11924;SDS011;6022;48.768;18.608;2023-04-24T08:51:52;2.37;;;2.23;;
11924;SDS011;6022;48.768;18.608;2023-04-24T08:54:36;2.77;;;2.53;;
11924;SDS011;6022;48.768;18.608;2023-04-24T08:57:04;2.70;;;2.23;;
11924;SDS011;6022;48.768;18.608;2023-04-24T08:59:37;2.80;;;2.60;;
11924;SDS011;6022;48.768;18.608;2023-04-24T09:02:06;2.73;;;2.53;;
11924;SDS011;6022;48.768;18.608;2023-04-24T09:04:38;3.47;;;2.93;;
11924;SDS011;6022;48.768;18.608;2023-04-24T09:07:11;4.87;;;2.63;;
11924;SDS011;6022;48.768;18.608;2023-04-24T09:09:45;2.70;;;1.73;;
11924;SDS011;6022;48.768;18.608;2023-04-24T09:12:14;3.73;;;2.70;;
11924;SDS011;6022;48.768;18.608;2023-04-24T09:14:42;4.73;;;2.00;;
11924;SDS011;6022;48.768;18.608;2023-04-24T09:17:12;3.37;;;2.77;;
11924;SDS011;6022;48.768;18.608;2023-04-24T09:19:39;5.30;;;3.07;;
11924;SDS011;6022;48.768;18.608;2023-04-24T09:22:08;6.37;;;3.90;;
11924;SDS011;6022;48.768;18.608;2023-04-24T09:24:40;3.20;;;2.30;;
11924;SDS011;6022;48.768;18.608;2023-04-24T09:27:11;2.63;;;2.30;;
11924;SDS011;6022;48.768;18.608;2023-04-24T09:29:39;3.00;;;2.57;;
11924;SDS011;6022;48.768;18.608;2023-04-24T09:32:21;2.77;;;2.53;;
11924;SDS011;6022;48.768;18.608;2023-04-24T09:35:05;2.57;;;2.27;;
11924;SDS011;6022;48.768;18.608;2023-04-24T09:37:41;2.97;;;2.73;;
11924;SDS011;6022;48.768;18.608;2023-04-24T09:40:16;5.93;;;2.87;;
11924;SDS011;6022;48.768;18.608;2023-04-24T09:42:55;9.73;;;4.60;;
11924;SDS011;6022;48.768;18.608;2023-04-24T09:45:27;3.30;;;2.67;;
11924;SDS011;6022;48.768;18.608;2023-04-24T09:48:02;7.13;;;4.10;;
11924;SDS011;6022;48.768;18.608;2023-04-24T09:50:30;2.67;;;2.43;;
11924;SDS011;6022;48.768;18.608;2023-04-24T09:53:04;3.40;;;2.97;;
11924;SDS011;6022;48.768;18.608;2023-04-24T09:55:38;3.90;;;2.73;;
11924;SDS011;6022;48.768;18.608;2023-04-24T09:58:11;3.50;;;2.57;;
11924;SDS011;6022;48.768;18.608;2023-04-24T10:00:38;4.30;;;2.03;;
11924;SDS011;6022;48.768;18.608;2023-04-24T10:03:05;4.60;;;3.00;;
11924;SDS011;6022;48.768;18.608;2023-04-24T10:05:35;5.40;;;2.77;;
11924;SDS011;6022;48.768;18.608;2023-04-24T10:08:06;3.73;;;2.67;;
11924;SDS011;6022;48.768;18.608;2023-04-24T10:10:39;3.80;;;2.97;;
11924;SDS011;6022;48.768;18.608;2023-04-24T10:13:12;3.80;;;2.87;;
11924;SDS011;6022;48.768;18.608;2023-04-24T10:15:42;3.37;;;3.17;;
11924;SDS011;6022;48.768;18.608;2023-04-24T10:18:10;2.57;;;2.33;;
11924;SDS011;6022;48.768;18.608;2023-04-24T10:20:38;3.77;;;2.63;;
11924;SDS011;6022;48.768;18.608;2023-04-24T10:23:07;5.27;;;2.63;;
11924;SDS011;6022;48.768;18.608;2023-04-24T10:25:35;2.70;;;2.17;;
11924;SDS011;6022;48.768;18.608;2023-04-24T10:28:03;4.53;;;3.57;;
11924;SDS011;6022;48.768;18.608;2023-04-24T10:30:34;2.97;;;2.43;;
11924;SDS011;6022;48.768;18.608;2023-04-24T10:33:06;2.80;;;2.60;;
11924;SDS011;6022;48.768;18.608;2023-04-24T10:35:39;3.47;;;2.60;;
11924;SDS011;6022;48.768;18.608;2023-04-24T10:38:12;3.77;;;2.40;;
11924;SDS011;6022;48.768;18.608;2023-04-24T10:40:43;3.40;;;3.10;;
11924;SDS011;6022;48.768;18.608;2023-04-24T10:43:10;7.57;;;3.03;;
11924;SDS011;6022;48.768;18.608;2023-04-24T10:46:06;2.97;;;2.77;;
11924;SDS011;6022;48.768;18.608;2023-04-24T10:48:41;3.10;;;2.80;;
11924;SDS011;6022;48.768;18.608;2023-04-24T10:51:11;3.77;;;2.77;;
11924;SDS011;6022;48.768;18.608;2023-04-24T10:53:40;3.23;;;2.93;;
11924;SDS011;6022;48.768;18.608;2023-04-24T10:56:08;3.37;;;2.87;;
11924;SDS011;6022;48.768;18.608;2023-04-24T10:58:37;3.00;;;2.67;;
11924;SDS011;6022;48.768;18.608;2023-04-24T11:01:29;5.43;;;2.47;;
11924;SDS011;6022;48.768;18.608;2023-04-24T11:04:00;3.63;;;2.97;;
11924;SDS011;6022;48.768;18.608;2023-04-24T11:09:01;3.90;;;2.97;;
11924;SDS011;6022;48.768;18.608;2023-04-24T11:11:36;4.30;;;2.77;;
11924;SDS011;6022;48.768;18.608;2023-04-24T11:14:10;4.13;;;3.07;;
11924;SDS011;6022;48.768;18.608;2023-04-24T11:16:42;2.87;;;2.60;;
11924;SDS011;6022;48.768;18.608;2023-04-24T11:19:24;2.57;;;2.37;;
11924;SDS011;6022;48.768;18.608;2023-04-24T11:21:57;3.73;;;3.03;;
11924;SDS011;6022;48.768;18.608;2023-04-24T11:25:12;3.37;;;3.07;;
11924;SDS011;6022;48.768;18.608;2023-04-24T11:27:20;4.60;;;3.30;;
11924;SDS011;6022;48.768;18.608;2023-04-24T11:35:13;4.13;;;2.83;;
11924;SDS011;6022;48.768;18.608;2023-04-24T11:37:49;3.03;;;2.77;;
11924;SDS011;6022;48.768;18.608;2023-04-24T11:40:41;3.40;;;3.10;;
11924;SDS011;6022;48.768;18.608;2023-04-24T11:43:13;5.60;;;2.73;;
11924;SDS011;6022;48.768;18.608;2023-04-24T11:45:48;3.43;;;3.20;;
11924;SDS011;6022;48.768;18.608;2023-04-24T11:48:20;3.27;;;2.90;;
11924;SDS011;6022;48.768;18.608;2023-04-24T11:50:49;3.17;;;2.87;;
11924;SDS011;6022;48.768;18.608;2023-04-24T11:53:18;3.40;;;2.80;;
11924;SDS011;6022;48.768;18.608;2023-04-24T11:55:48;3.63;;;3.33;;
11924;SDS011;6022;48.768;18.608;2023-04-24T11:58:28;3.63;;;3.23;;
11924;SDS011;6022;48.768;18.608;2023-04-24T12:01:01;5.10;;;3.47;;
11924;SDS011;6022;48.768;18.608;2023-04-24T12:03:29;2.97;;;2.67;;
11924;SDS011;6022;48.768;18.608;2023-04-24T12:06:04;3.97;;;2.67;;
11924;SDS011;6022;48.768;18.608;2023-04-24T12:08:36;4.93;;;3.33;;
11924;SDS011;6022;48.768;18.608;2023-04-24T12:11:04;3.43;;;2.70;;
11924;SDS011;6022;48.768;18.608;2023-04-24T12:13:36;3.30;;;3.00;;
11924;SDS011;6022;48.768;18.608;2023-04-24T12:16:04;4.00;;;3.23;;
11924;SDS011;6022;48.768;18.608;2023-04-24T12:18:32;6.97;;;4.03;;
11924;SDS011;6022;48.768;18.608;2023-04-24T12:23:53;4.17;;;3.70;;
11924;SDS011;6022;48.768;18.608;2023-04-24T12:26:22;5.20;;;3.83;;
11924;SDS011;6022;48.768;18.608;2023-04-24T12:29:03;3.80;;;3.40;;
11924;SDS011;6022;48.768;18.608;2023-04-24T12:31:31;3.60;;;3.03;;
11924;SDS011;6022;48.768;18.608;2023-04-24T12:33:59;3.60;;;3.10;;
11924;SDS011;6022;48.768;18.608;2023-04-24T12:36:26;5.97;;;3.50;;
11924;SDS011;6022;48.768;18.608;2023-04-24T12:39:19;5.10;;;4.03;;
11924;SDS011;6022;48.768;18.608;2023-04-24T12:41:56;4.23;;;3.60;;
11924;SDS011;6022;48.768;18.608;2023-04-24T12:44:31;5.20;;;4.30;;
11924;SDS011;6022;48.768;18.608;2023-04-24T12:47:03;5.27;;;3.00;;
11924;SDS011;6022;48.768;18.608;2023-04-24T12:49:33;4.77;;;3.17;;
11924;SDS011;6022;48.768;18.608;2023-04-24T12:52:00;5.13;;;4.00;;
11924;SDS011;6022;48.768;18.608;2023-04-24T12:54:32;4.97;;;4.40;;
11924;SDS011;6022;48.768;18.608;2023-04-24T12:57:02;4.10;;;3.60;;
11924;SDS011;6022;48.768;18.608;2023-04-24T12:59:42;9.23;;;4.07;;
11924;SDS011;6022;48.768;18.608;2023-04-24T13:02:10;5.37;;;4.40;;
11924;SDS011;6022;48.768;18.608;2023-04-24T13:04:38;5.00;;;4.00;;
11924;SDS011;6022;48.768;18.608;2023-04-24T13:07:07;5.83;;;4.33;;
11924;SDS011;6022;48.768;18.608;2023-04-24T13:09:34;4.90;;;3.67;;
11924;SDS011;6022;48.768;18.608;2023-04-24T13:12:02;4.87;;;4.07;;
11924;SDS011;6022;48.768;18.608;2023-04-24T13:14:29;5.97;;;4.87;;
11924;SDS011;6022;48.768;18.608;2023-04-24T13:16:57;6.70;;;4.70;;
11924;SDS011;6022;48.768;18.608;2023-04-24T13:19:24;8.13;;;5.07;;
11924;SDS011;6022;48.768;18.608;2023-04-24T13:21:56;7.00;;;4.23;;
11924;SDS011;6022;48.768;18.608;2023-04-24T13:24:33;6.00;;;4.40;;
11924;SDS011;6022;48.768;18.608;2023-04-24T13:27:01;5.40;;;4.67;;
11924;SDS011;6022;48.768;18.608;2023-04-24T13:29:31;5.20;;;4.17;;
11924;SDS011;6022;48.768;18.608;2023-04-24T13:32:05;5.23;;;4.73;;
11924;SDS011;6022;48.768;18.608;2023-04-24T13:34:33;5.20;;;4.70;;
11924;SDS011;6022;48.768;18.608;2023-04-24T13:37:01;4.53;;;4.13;;
11924;SDS011;6022;48.768;18.608;2023-04-24T13:39:32;7.67;;;4.57;;
11924;SDS011;6022;48.768;18.608;2023-04-24T13:42:00;6.40;;;4.23;;
11924;SDS011;6022;48.768;18.608;2023-04-24T13:44:30;7.43;;;5.03;;
11924;SDS011;6022;48.768;18.608;2023-04-24T13:46:58;6.97;;;4.83;;
11924;SDS011;6022;48.768;18.608;2023-04-24T13:49:26;7.70;;;5.50;;
11924;SDS011;6022;48.768;18.608;2023-04-24T13:51:54;9.27;;;5.33;;
11924;SDS011;6022;48.768;18.608;2023-04-24T13:54:22;5.17;;;4.37;;
11924;SDS011;6022;48.768;18.608;2023-04-24T13:56:52;5.00;;;4.40;;
11924;SDS011;6022;48.768;18.608;2023-04-24T13:59:23;6.80;;;4.30;;
11924;SDS011;6022;48.768;18.608;2023-04-24T14:01:51;8.80;;;5.03;;
11924;SDS011;6022;48.768;18.608;2023-04-24T14:04:23;6.17;;;4.40;;
11924;SDS011;6022;48.768;18.608;2023-04-24T14:06:59;7.33;;;4.83;;
11924;SDS011;6022;48.768;18.608;2023-04-24T14:09:26;6.70;;;5.00;;
11924;SDS011;6022;48.768;18.608;2023-04-24T14:11:53;7.33;;;5.17;;
11924;SDS011;6022;48.768;18.608;2023-04-24T14:14:21;6.53;;;5.30;;
11924;SDS011;6022;48.768;18.608;2023-04-24T14:16:49;5.93;;;4.60;;
11924;SDS011;6022;48.768;18.608;2023-04-24T14:19:16;6.07;;;4.70;;
11924;SDS011;6022;48.768;18.608;2023-04-24T14:21:44;7.97;;;5.30;;
11924;SDS011;6022;48.768;18.608;2023-04-24T14:24:11;6.70;;;5.73;;
11924;SDS011;6022;48.768;18.608;2023-04-24T14:26:41;9.53;;;5.43;;
11924;SDS011;6022;48.768;18.608;2023-04-24T14:29:13;5.50;;;5.00;;
11924;SDS011;6022;48.768;18.608;2023-04-24T14:32:00;8.77;;;5.33;;
11924;SDS011;6022;48.768;18.608;2023-04-24T14:34:33;5.90;;;4.17;;
11924;SDS011;6022;48.768;18.608;2023-04-24T14:37:03;9.00;;;6.20;;
11924;SDS011;6022;48.768;18.608;2023-04-24T14:40:02;8.03;;;5.33;;
11924;SDS011;6022;48.768;18.608;2023-04-24T14:43:00;6.63;;;5.13;;
11924;SDS011;6022;48.768;18.608;2023-04-24T14:45:45;6.90;;;5.43;;
11924;SDS011;6022;48.768;18.608;2023-04-24T14:48:43;8.17;;;5.67;;
11924;SDS011;6022;48.768;18.608;2023-04-24T14:51:11;8.13;;;6.07;;
11924;SDS011;6022;48.768;18.608;2023-04-24T14:53:39;8.63;;;5.83;;
11924;SDS011;6022;48.768;18.608;2023-04-24T14:56:06;11.23;;;6.43;;
11924;SDS011;6022;48.768;18.608;2023-04-24T14:58:34;8.60;;;6.07;;
11924;SDS011;6022;48.768;18.608;2023-04-24T15:01:01;9.63;;;7.00;;
11924;SDS011;6022;48.768;18.608;2023-04-24T15:03:29;8.30;;;6.07;;
11924;SDS011;6022;48.768;18.608;2023-04-24T15:05:57;7.83;;;5.33;;
11924;SDS011;6022;48.768;18.608;2023-04-24T15:08:25;10.47;;;6.73;;
11924;SDS011;6022;48.768;18.608;2023-04-24T15:10:52;7.57;;;6.17;;
11924;SDS011;6022;48.768;18.608;2023-04-24T15:13:20;8.70;;;5.60;;
11924;SDS011;6022;48.768;18.608;2023-04-24T15:15:50;8.73;;;6.13;;
11924;SDS011;6022;48.768;18.608;2023-04-24T15:18:17;8.37;;;6.00;;
11924;SDS011;6022;48.768;18.608;2023-04-24T15:20:44;8.00;;;5.27;;